sensor_id;sensor_type;location;lat;lon;timestamp;P1;durP1;ratioP1;P2;durP2;ratioP2
44446;SDS011;30152;52.066;5.358;2024-01-15T08:24:28;14.18;;;4.47;;
44446;SDS011;30152;52.066;5.358;2024-01-15T08:26:54;17.83;;;4.65;;
44446;SDS011;30152;52.066;5.358;2024-01-15T08:29:21;15.48;;;4.22;;
44446;SDS011;30152;52.066;5.358;2024-01-15T08:31:46;19.20;;;4.43;;
44446;SDS011;30152;52.066;5.358;2024-01-15T08:34:13;15.43;;;3.50;;
44446;SDS011;30152;52.066;5.358;2024-01-15T08:36:39;15.10;;;3.78;;
44446;SDS011;30152;52.066;5.358;2024-01-15T08:39:05;19.95;;;3.45;;
44446;SDS011;30152;52.066;5.358;2024-01-15T08:41:34;16.05;;;3.42;;
44446;SDS011;30152;52.066;5.358;2024-01-15T08:44:00;12.75;;;3.20;;
44446;SDS011;30152;52.066;5.358;2024-01-15T08:46:27;14.98;;;3.50;;
44446;SDS011;30152;52.066;5.358;2024-01-15T08:48:53;14.50;;;3.20;;
44446;SDS011;30152;52.066;5.358;2024-01-15T08:51:19;13.05;;;3.45;;
44446;SDS011;30152;52.066;5.358;2024-01-15T08:53:45;19.30;;;3.70;;
44446;SDS011;30152;52.066;5.358;2024-01-15T08:56:11;15.82;;;4.00;;
44446;SDS011;30152;52.066;5.358;2024-01-15T08:58:37;17.88;;;3.90;;
44446;SDS011;30152;52.066;5.358;2024-01-15T09:01:03;15.68;;;3.67;;
44446;SDS011;30152;52.066;5.358;2024-01-15T09:03:29;15.13;;;3.88;;
44446;SDS011;30152;52.066;5.358;2024-01-15T09:05:55;15.83;;;3.83;;
44446;SDS011;30152;52.066;5.358;2024-01-15T09:08:21;15.10;;;3.63;;
44446;SDS011;30152;52.066;5.358;2024-01-15T09:10:47;14.23;;;3.22;;
44446;SDS011;30152;52.066;5.358;2024-01-15T09:13:12;13.53;;;4.03;;
44446;SDS011;30152;52.066;5.358;2024-01-15T09:15:38;12.85;;;3.25;;
44446;SDS011;30152;52.066;5.358;2024-01-15T09:18:04;10.00;;;3.10;;
44446;SDS011;30152;52.066;5.358;2024-01-15T09:20:30;13.00;;;2.70;;
44446;SDS011;30152;52.066;5.358;2024-01-15T09:22:56;10.20;;;2.20;;
44446;SDS011;30152;52.066;5.358;2024-01-15T09:25:22;12.00;;;2.30;;
44446;SDS011;30152;52.066;5.358;2024-01-15T09:27:48;13.63;;;1.90;;
44446;SDS011;30152;52.066;5.358;2024-01-15T09:30:14;11.50;;;1.77;;
44446;SDS011;30152;52.066;5.358;2024-01-15T09:32:40;14.95;;;2.17;;
44446;SDS011;30152;52.066;5.358;2024-01-15T09:35:06;10.98;;;2.05;;
44446;SDS011;30152;52.066;5.358;2024-01-15T09:37:32;9.10;;;2.20;;
44446;SDS011;30152;52.066;5.358;2024-01-15T09:39:58;12.20;;;2.17;;
44446;SDS011;30152;52.066;5.358;2024-01-15T09:42:23;11.32;;;2.47;;
44446;SDS011;30152;52.066;5.358;2024-01-15T09:44:50;13.18;;;2.38;;
44446;SDS011;30152;52.066;5.358;2024-01-15T09:47:16;11.68;;;1.95;;
44446;SDS011;30152;52.066;5.358;2024-01-15T09:49:43;11.32;;;1.80;;
44446;SDS011;30152;52.066;5.358;2024-01-15T09:52:09;11.13;;;2.13;;
44446;SDS011;30152;52.066;5.358;2024-01-15T09:54:36;10.90;;;2.00;;
44446;SDS011;30152;52.066;5.358;2024-01-15T09:57:03;12.65;;;2.22;;
44446;SDS011;30152;52.066;5.358;2024-01-15T09:59:29;8.43;;;2.13;;
44446;SDS011;30152;52.066;5.358;2024-01-15T10:01:56;13.57;;;2.63;;
44446;SDS011;30152;52.066;5.358;2024-01-15T10:04:23;12.07;;;2.75;;
44446;SDS011;30152;52.066;5.358;2024-01-15T10:06:51;16.45;;;2.90;;
44446;SDS011;30152;52.066;5.358;2024-01-15T10:09:17;11.95;;;2.60;;
44446;SDS011;30152;52.066;5.358;2024-01-15T10:11:43;13.73;;;3.55;;
44446;SDS011;30152;52.066;5.358;2024-01-15T10:14:12;15.23;;;3.40;;
44446;SDS011;30152;52.066;5.358;2024-01-15T10:16:38;14.57;;;2.97;;
44446;SDS011;30152;52.066;5.358;2024-01-15T10:19:04;11.27;;;2.23;;
44446;SDS011;30152;52.066;5.358;2024-01-15T10:21:33;12.17;;;2.23;;
44446;SDS011;30152;52.066;5.358;2024-01-15T10:24:00;11.35;;;2.33;;
44446;SDS011;30152;52.066;5.358;2024-01-15T10:26:26;14.55;;;2.25;;
44446;SDS011;30152;52.066;5.358;2024-01-15T10:28:52;13.50;;;2.10;;
44446;SDS011;30152;52.066;5.358;2024-01-15T10:31:18;12.52;;;2.03;;
44446;SDS011;30152;52.066;5.358;2024-01-15T10:33:44;12.97;;;1.90;;
44446;SDS011;30152;52.066;5.358;2024-01-15T10:36:10;10.20;;;1.80;;
44446;SDS011;30152;52.066;5.358;2024-01-15T10:38:36;16.60;;;2.10;;
44446;SDS011;30152;52.066;5.358;2024-01-15T10:41:02;12.30;;;2.00;;
44446;SDS011;30152;52.066;5.358;2024-01-15T10:43:29;7.95;;;1.48;;
44446;SDS011;30152;52.066;5.358;2024-01-15T10:45:55;8.45;;;1.40;;
44446;SDS011;30152;52.066;5.358;2024-01-15T10:48:21;8.18;;;1.80;;
44446;SDS011;30152;52.066;5.358;2024-01-15T10:50:46;11.73;;;1.40;;
44446;SDS011;30152;52.066;5.358;2024-01-15T10:53:15;13.73;;;1.92;;
44446;SDS011;30152;52.066;5.358;2024-01-15T10:55:41;10.38;;;1.60;;
44446;SDS011;30152;52.066;5.358;2024-01-15T10:58:07;11.43;;;1.27;;
44446;SDS011;30152;52.066;5.358;2024-01-15T11:00:34;11.68;;;1.60;;
44446;SDS011;30152;52.066;5.358;2024-01-15T11:03:02;13.48;;;2.40;;
44446;SDS011;30152;52.066;5.358;2024-01-15T11:05:33;13.02;;;1.58;;
44446;SDS011;30152;52.066;5.358;2024-01-15T11:07:59;11.40;;;1.75;;
44446;SDS011;30152;52.066;5.358;2024-01-15T11:13:13;7.50;;;1.05;;
44446;SDS011;30152;52.066;5.358;2024-01-15T11:16:00;13.13;;;1.63;;
44446;SDS011;30152;52.066;5.358;2024-01-15T11:18:36;9.30;;;1.30;;
44446;SDS011;30152;52.066;5.358;2024-01-15T11:26:32;12.43;;;1.80;;
44446;SDS011;30152;52.066;5.358;2024-01-15T11:29:10;8.85;;;1.30;;
44446;SDS011;30152;52.066;5.358;2024-01-15T11:34:08;12.57;;;1.35;;
44446;SDS011;30152;52.066;5.358;2024-01-15T11:37:16;10.70;;;1.25;;
44446;SDS011;30152;52.066;5.358;2024-01-15T11:41:58;12.35;;;1.60;;
44446;SDS011;30152;52.066;5.358;2024-01-15T11:44:25;8.48;;;1.15;;
44446;SDS011;30152;52.066;5.358;2024-01-15T11:47:04;12.07;;;1.33;;
44446;SDS011;30152;52.066;5.358;2024-01-15T11:52:17;9.60;;;1.30;;
44446;SDS011;30152;52.066;5.358;2024-01-15T11:54:47;11.13;;;1.30;;
44446;SDS011;30152;52.066;5.358;2024-01-15T11:57:18;12.60;;;1.20;;
44446;SDS011;30152;52.066;5.358;2024-01-15T11:59:47;8.65;;;1.40;;
44446;SDS011;30152;52.066;5.358;2024-01-15T12:02:13;10.17;;;1.20;;
44446;SDS011;30152;52.066;5.358;2024-01-15T12:04:39;9.67;;;1.30;;
44446;SDS011;30152;52.066;5.358;2024-01-15T12:07:05;8.30;;;1.40;;
44446;SDS011;30152;52.066;5.358;2024-01-15T12:09:30;9.47;;;1.77;;
44446;SDS011;30152;52.066;5.358;2024-01-15T12:12:03;9.02;;;2.00;;
44446;SDS011;30152;52.066;5.358;2024-01-15T12:14:33;9.15;;;1.20;;
44446;SDS011;30152;52.066;5.358;2024-01-15T12:17:00;9.25;;;1.40;;
44446;SDS011;30152;52.066;5.358;2024-01-15T12:19:26;13.05;;;2.00;;
44446;SDS011;30152;52.066;5.358;2024-01-15T12:21:51;10.75;;;1.38;;
44446;SDS011;30152;52.066;5.358;2024-01-15T12:24:17;9.77;;;1.40;;
44446;SDS011;30152;52.066;5.358;2024-01-15T12:26:43;6.63;;;1.38;;
44446;SDS011;30152;52.066;5.358;2024-01-15T12:29:10;8.07;;;1.20;;
44446;SDS011;30152;52.066;5.358;2024-01-15T12:31:36;8.18;;;1.38;;
44446;SDS011;30152;52.066;5.358;2024-01-15T12:34:02;7.40;;;1.17;;
44446;SDS011;30152;52.066;5.358;2024-01-15T12:36:30;7.43;;;1.20;;
44446;SDS011;30152;52.066;5.358;2024-01-15T12:38:59;6.05;;;1.08;;
44446;SDS011;30152;52.066;5.358;2024-01-15T12:41:25;6.53;;;1.00;;
44446;SDS011;30152;52.066;5.358;2024-01-15T12:43:51;8.27;;;1.42;;
44446;SDS011;30152;52.066;5.358;2024-01-15T12:46:17;7.38;;;1.25;;
44446;SDS011;30152;52.066;5.358;2024-01-15T12:48:44;6.75;;;1.13;;
44446;SDS011;30152;52.066;5.358;2024-01-15T12:51:10;6.28;;;1.10;;
44446;SDS011;30152;52.066;5.358;2024-01-15T12:53:36;7.17;;;0.90;;
44446;SDS011;30152;52.066;5.358;2024-01-15T12:56:02;4.80;;;0.90;;
44446;SDS011;30152;52.066;5.358;2024-01-15T12:58:28;4.68;;;0.70;;
44446;SDS011;30152;52.066;5.358;2024-01-15T13:00:53;6.50;;;0.83;;
44446;SDS011;30152;52.066;5.358;2024-01-15T13:03:19;9.80;;;0.82;;
44446;SDS011;30152;52.066;5.358;2024-01-15T13:05:45;4.13;;;0.70;;
44446;SDS011;30152;52.066;5.358;2024-01-15T13:08:11;8.52;;;0.80;;
44446;SDS011;30152;52.066;5.358;2024-01-15T13:10:37;6.15;;;0.95;;
44446;SDS011;30152;52.066;5.358;2024-01-15T13:13:03;7.07;;;0.70;;
44446;SDS011;30152;52.066;5.358;2024-01-15T13:15:29;8.15;;;0.98;;
44446;SDS011;30152;52.066;5.358;2024-01-15T13:17:56;9.65;;;2.00;;
44446;SDS011;30152;52.066;5.358;2024-01-15T13:20:22;10.15;;;1.40;;
44446;SDS011;30152;52.066;5.358;2024-01-15T13:22:48;7.53;;;1.30;;
44446;SDS011;30152;52.066;5.358;2024-01-15T13:25:14;9.95;;;1.10;;
44446;SDS011;30152;52.066;5.358;2024-01-15T13:27:41;10.02;;;1.23;;
44446;SDS011;30152;52.066;5.358;2024-01-15T13:30:07;9.85;;;1.25;;
44446;SDS011;30152;52.066;5.358;2024-01-15T13:32:33;10.70;;;1.27;;
44446;SDS011;30152;52.066;5.358;2024-01-15T13:34:59;8.10;;;1.35;;
44446;SDS011;30152;52.066;5.358;2024-01-15T13:37:25;9.48;;;1.42;;
44446;SDS011;30152;52.066;5.358;2024-01-15T13:39:50;8.70;;;1.40;;
44446;SDS011;30152;52.066;5.358;2024-01-15T13:42:20;9.50;;;1.50;;
44446;SDS011;30152;52.066;5.358;2024-01-15T13:44:47;7.82;;;1.35;;
44446;SDS011;30152;52.066;5.358;2024-01-15T13:47:13;7.90;;;1.10;;
44446;SDS011;30152;52.066;5.358;2024-01-15T13:49:39;8.98;;;1.40;;
44446;SDS011;30152;52.066;5.358;2024-01-15T13:52:04;9.30;;;1.17;;
44446;SDS011;30152;52.066;5.358;2024-01-15T13:54:31;9.73;;;1.92;;
44446;SDS011;30152;52.066;5.358;2024-01-15T13:56:57;8.48;;;1.45;;
44446;SDS011;30152;52.066;5.358;2024-01-15T13:59:24;8.18;;;1.52;;
44446;SDS011;30152;52.066;5.358;2024-01-15T14:01:49;13.85;;;1.52;;
44446;SDS011;30152;52.066;5.358;2024-01-15T14:04:15;11.50;;;1.98;;
44446;SDS011;30152;52.066;5.358;2024-01-15T14:06:41;13.30;;;1.80;;
44446;SDS011;30152;52.066;5.358;2024-01-15T14:09:07;11.57;;;1.70;;
44446;SDS011;30152;52.066;5.358;2024-01-15T14:11:35;19.25;;;2.20;;
44446;SDS011;30152;52.066;5.358;2024-01-15T14:14:02;12.43;;;1.50;;
44446;SDS011;30152;52.066;5.358;2024-01-15T14:16:28;12.52;;;1.80;;
44446;SDS011;30152;52.066;5.358;2024-01-15T14:18:54;7.45;;;1.27;;
44446;SDS011;30152;52.066;5.358;2024-01-15T14:21:19;12.63;;;1.57;;
44446;SDS011;30152;52.066;5.358;2024-01-15T14:23:45;10.43;;;1.27;;
44446;SDS011;30152;52.066;5.358;2024-01-15T14:26:11;14.70;;;1.73;;
44446;SDS011;30152;52.066;5.358;2024-01-15T14:28:37;13.52;;;1.55;;
44446;SDS011;30152;52.066;5.358;2024-01-15T14:31:03;11.55;;;1.50;;
44446;SDS011;30152;52.066;5.358;2024-01-15T14:33:30;10.32;;;1.63;;
44446;SDS011;30152;52.066;5.358;2024-01-15T14:35:56;13.13;;;1.60;;
44446;SDS011;30152;52.066;5.358;2024-01-15T14:38:22;11.38;;;1.88;;
44446;SDS011;30152;52.066;5.358;2024-01-15T14:40:48;10.25;;;1.63;;
44446;SDS011;30152;52.066;5.358;2024-01-15T14:43:15;11.68;;;1.33;;
44446;SDS011;30152;52.066;5.358;2024-01-15T14:45:41;13.65;;;2.00;;
44446;SDS011;30152;52.066;5.358;2024-01-15T14:48:08;20.15;;;2.28;;
44446;SDS011;30152;52.066;5.358;2024-01-15T14:50:34;11.43;;;2.08;;
44446;SDS011;30152;52.066;5.358;2024-01-15T14:53:00;15.38;;;1.95;;
44446;SDS011;30152;52.066;5.358;2024-01-15T14:55:26;14.93;;;2.13;;
44446;SDS011;30152;52.066;5.358;2024-01-15T14:57:52;16.60;;;2.08;;
44446;SDS011;30152;52.066;5.358;2024-01-15T15:00:18;16.38;;;2.60;;
44446;SDS011;30152;52.066;5.358;2024-01-15T15:02:44;15.07;;;2.47;;
44446;SDS011;30152;52.066;5.358;2024-01-15T15:05:10;16.40;;;2.60;;
44446;SDS011;30152;52.066;5.358;2024-01-15T15:07:38;15.90;;;2.50;;
44446;SDS011;30152;52.066;5.358;2024-01-15T15:10:04;16.80;;;2.50;;
44446;SDS011;30152;52.066;5.358;2024-01-15T15:12:30;15.95;;;2.58;;
44446;SDS011;30152;52.066;5.358;2024-01-15T15:14:56;16.67;;;2.50;;
44446;SDS011;30152;52.066;5.358;2024-01-15T15:17:22;14.05;;;2.90;;
44446;SDS011;30152;52.066;5.358;2024-01-15T15:19:48;17.08;;;2.90;;
44446;SDS011;30152;52.066;5.358;2024-01-15T15:22:13;13.80;;;2.80;;
44446;SDS011;30152;52.066;5.358;2024-01-15T15:24:39;15.77;;;2.30;;
44446;SDS011;30152;52.066;5.358;2024-01-15T15:27:05;19.93;;;2.43;;
44446;SDS011;30152;52.066;5.358;2024-01-15T15:29:32;15.77;;;2.03;;
44446;SDS011;30152;52.066;5.358;2024-01-15T15:32:00;14.75;;;2.47;;
44446;SDS011;30152;52.066;5.358;2024-01-15T15:34:26;13.37;;;2.20;;
44446;SDS011;30152;52.066;5.358;2024-01-15T15:36:52;18.20;;;2.00;;
44446;SDS011;30152;52.066;5.358;2024-01-15T15:39:18;17.30;;;2.40;;
44446;SDS011;30152;52.066;5.358;2024-01-15T15:41:44;17.03;;;1.80;;
44446;SDS011;30152;52.066;5.358;2024-01-15T15:44:10;19.63;;;2.47;;
44446;SDS011;30152;52.066;5.358;2024-01-15T15:46:39;15.05;;;1.83;;
44446;SDS011;30152;52.066;5.358;2024-01-15T15:49:05;19.65;;;2.35;;
44446;SDS011;30152;52.066;5.358;2024-01-15T15:51:32;14.82;;;2.20;;
44446;SDS011;30152;52.066;5.358;2024-01-15T15:53:58;17.63;;;2.30;;
44446;SDS011;30152;52.066;5.358;2024-01-15T15:56:23;13.00;;;2.60;;
44446;SDS011;30152;52.066;5.358;2024-01-15T15:58:51;17.25;;;2.08;;
44446;SDS011;30152;52.066;5.358;2024-01-15T16:01:17;19.35;;;2.20;;
44446;SDS011;30152;52.066;5.358;2024-01-15T16:03:42;13.03;;;1.80;;
44446;SDS011;30152;52.066;5.358;2024-01-15T16:06:08;20.57;;;2.67;;
44446;SDS011;30152;52.066;5.358;2024-01-15T16:08:34;15.23;;;2.20;;
44446;SDS011;30152;52.066;5.358;2024-01-15T16:11:00;15.82;;;2.42;;
44446;SDS011;30152;52.066;5.358;2024-01-15T16:13:26;11.75;;;2.05;;
44446;SDS011;30152;52.066;5.358;2024-01-15T16:15:52;16.30;;;2.50;;
44446;SDS011;30152;52.066;5.358;2024-01-15T16:18:17;10.52;;;1.80;;
44446;SDS011;30152;52.066;5.358;2024-01-15T16:20:43;16.70;;;2.20;;
44446;SDS011;30152;52.066;5.358;2024-01-15T16:23:09;11.93;;;2.00;;
44446;SDS011;30152;52.066;5.358;2024-01-15T16:25:35;11.70;;;1.73;;
44446;SDS011;30152;52.066;5.358;2024-01-15T16:28:05;16.10;;;2.10;;
44446;SDS011;30152;52.066;5.358;2024-01-15T16:30:31;12.43;;;2.27;;
44446;SDS011;30152;52.066;5.358;2024-01-15T16:32:57;18.63;;;2.25;;
44446;SDS011;30152;52.066;5.358;2024-01-15T16:35:23;13.60;;;2.13;;
44446;SDS011;30152;52.066;5.358;2024-01-15T16:37:49;16.85;;;2.00;;
44446;SDS011;30152;52.066;5.358;2024-01-15T16:40:15;13.60;;;1.87;;
44446;SDS011;30152;52.066;5.358;2024-01-15T16:42:41;17.27;;;2.50;;
44446;SDS011;30152;52.066;5.358;2024-01-15T16:45:07;12.60;;;1.90;;
44446;SDS011;30152;52.066;5.358;2024-01-15T16:47:33;15.88;;;2.22;;
44446;SDS011;30152;52.066;5.358;2024-01-15T16:49:59;15.77;;;2.45;;
44446;SDS011;30152;52.066;5.358;2024-01-15T16:52:25;10.37;;;1.50;;
44446;SDS011;30152;52.066;5.358;2024-01-15T16:54:51;13.93;;;2.03;;
44446;SDS011;30152;52.066;5.358;2024-01-15T16:57:16;16.60;;;2.70;;
44446;SDS011;30152;52.066;5.358;2024-01-15T16:59:42;15.05;;;2.40;;
44446;SDS011;30152;52.066;5.358;2024-01-15T17:02:08;15.93;;;2.35;;
44446;SDS011;30152;52.066;5.358;2024-01-15T17:04:34;15.20;;;2.42;;
44446;SDS011;30152;52.066;5.358;2024-01-15T17:07:00;16.80;;;2.80;;
44446;SDS011;30152;52.066;5.358;2024-01-15T17:09:26;20.05;;;2.80;;
44446;SDS011;30152;52.066;5.358;2024-01-15T17:11:51;12.25;;;2.10;;
44446;SDS011;30152;52.066;5.358;2024-01-15T17:14:17;12.85;;;2.05;;
44446;SDS011;30152;52.066;5.358;2024-01-15T17:16:43;16.38;;;2.55;;
44446;SDS011;30152;52.066;5.358;2024-01-15T17:19:11;13.63;;;2.13;;
44446;SDS011;30152;52.066;5.358;2024-01-15T17:21:37;13.70;;;2.28;;
44446;SDS011;30152;52.066;5.358;2024-01-15T17:24:03;14.30;;;2.20;;
44446;SDS011;30152;52.066;5.358;2024-01-15T17:26:29;16.20;;;2.03;;
44446;SDS011;30152;52.066;5.358;2024-01-15T17:28:55;12.48;;;1.95;;
44446;SDS011;30152;52.066;5.358;2024-01-15T17:31:21;11.70;;;2.22;;
44446;SDS011;30152;52.066;5.358;2024-01-15T17:33:47;13.85;;;2.90;;
44446;SDS011;30152;52.066;5.358;2024-01-15T17:36:13;14.82;;;2.25;;
44446;SDS011;30152;52.066;5.358;2024-01-15T17:38:39;12.27;;;2.25;;
44446;SDS011;30152;52.066;5.358;2024-01-15T17:41:05;16.67;;;3.23;;
44446;SDS011;30152;52.066;5.358;2024-01-15T17:43:30;14.13;;;2.40;;
44446;SDS011;30152;52.066;5.358;2024-01-15T17:45:57;12.30;;;2.50;;
44446;SDS011;30152;52.066;5.358;2024-01-15T17:48:25;14.07;;;2.30;;
44446;SDS011;30152;52.066;5.358;2024-01-15T17:50:51;13.15;;;2.38;;
44446;SDS011;30152;52.066;5.358;2024-01-15T17:53:17;17.47;;;2.60;;
44446;SDS011;30152;52.066;5.358;2024-01-15T17:55:43;12.73;;;2.40;;
44446;SDS011;30152;52.066;5.358;2024-01-15T17:58:09;17.88;;;2.38;;
44446;SDS011;30152;52.066;5.358;2024-01-15T18:00:35;18.75;;;2.88;;
44446;SDS011;30152;52.066;5.358;2024-01-15T18:03:00;13.90;;;2.58;;
44446;SDS011;30152;52.066;5.358;2024-01-15T18:05:26;15.13;;;2.50;;
44446;SDS011;30152;52.066;5.358;2024-01-15T18:07:52;15.38;;;3.10;;
44446;SDS011;30152;52.066;5.358;2024-01-15T18:10:18;14.23;;;3.50;;
44446;SDS011;30152;52.066;5.358;2024-01-15T18:12:43;15.70;;;2.93;;
44446;SDS011;30152;52.066;5.358;2024-01-15T18:15:09;13.50;;;3.00;;
44446;SDS011;30152;52.066;5.358;2024-01-15T18:17:35;15.70;;;2.67;;
44446;SDS011;30152;52.066;5.358;2024-01-15T18:20:02;19.38;;;2.97;;
44446;SDS011;30152;52.066;5.358;2024-01-15T18:22:28;15.85;;;2.72;;
44446;SDS011;30152;52.066;5.358;2024-01-15T18:24:54;13.30;;;2.83;;
44446;SDS011;30152;52.066;5.358;2024-01-15T18:27:21;15.57;;;3.03;;
44446;SDS011;30152;52.066;5.358;2024-01-15T18:29:46;14.90;;;3.40;;
44446;SDS011;30152;52.066;5.358;2024-01-15T18:32:12;18.52;;;3.25;;
44446;SDS011;30152;52.066;5.358;2024-01-15T18:34:38;19.70;;;3.70;;
44446;SDS011;30152;52.066;5.358;2024-01-15T18:37:03;16.80;;;3.57;;
44446;SDS011;30152;52.066;5.358;2024-01-15T18:39:29;20.20;;;3.20;;
44446;SDS011;30152;52.066;5.358;2024-01-15T18:41:55;14.50;;;2.97;;
44446;SDS011;30152;52.066;5.358;2024-01-15T18:44:21;16.47;;;3.40;;
44446;SDS011;30152;52.066;5.358;2024-01-15T18:46:47;21.30;;;5.03;;
44446;SDS011;30152;52.066;5.358;2024-01-15T18:49:13;21.50;;;3.88;;
44446;SDS011;30152;52.066;5.358;2024-01-15T18:51:41;15.70;;;3.97;;
44446;SDS011;30152;52.066;5.358;2024-01-15T18:54:07;13.27;;;2.55;;
44446;SDS011;30152;52.066;5.358;2024-01-15T18:56:33;19.23;;;2.75;;
44446;SDS011;30152;52.066;5.358;2024-01-15T18:59:01;20.07;;;2.93;;
44446;SDS011;30152;52.066;5.358;2024-01-15T19:01:30;14.67;;;2.47;;
44446;SDS011;30152;52.066;5.358;2024-01-15T19:03:56;16.52;;;3.50;;
44446;SDS011;30152;52.066;5.358;2024-01-15T19:06:23;18.02;;;4.57;;
44446;SDS011;30152;52.066;5.358;2024-01-15T19:08:49;19.05;;;4.22;;
44446;SDS011;30152;52.066;5.358;2024-01-15T19:11:15;21.00;;;4.45;;
44446;SDS011;30152;52.066;5.358;2024-01-15T19:13:42;16.52;;;2.90;;
44446;SDS011;30152;52.066;5.358;2024-01-15T19:16:07;14.48;;;3.28;;
44446;SDS011;30152;52.066;5.358;2024-01-15T19:18:33;20.10;;;3.20;;
44446;SDS011;30152;52.066;5.358;2024-01-15T19:20:59;16.00;;;3.10;;
44446;SDS011;30152;52.066;5.358;2024-01-15T19:23:25;19.88;;;2.83;;
44446;SDS011;30152;52.066;5.358;2024-01-15T19:25:51;17.45;;;2.72;;
44446;SDS011;30152;52.066;5.358;2024-01-15T19:28:17;20.10;;;2.85;;
44446;SDS011;30152;52.066;5.358;2024-01-15T19:30:43;19.00;;;3.00;;
44446;SDS011;30152;52.066;5.358;2024-01-15T19:33:09;14.52;;;2.78;;
44446;SDS011;30152;52.066;5.358;2024-01-15T19:35:34;16.90;;;3.63;;
44446;SDS011;30152;52.066;5.358;2024-01-15T19:38:00;19.60;;;3.53;;
44446;SDS011;30152;52.066;5.358;2024-01-15T19:40:27;14.10;;;2.47;;
44446;SDS011;30152;52.066;5.358;2024-01-15T19:42:53;18.10;;;2.90;;
44446;SDS011;30152;52.066;5.358;2024-01-15T19:45:18;15.77;;;3.30;;
44446;SDS011;30152;52.066;5.358;2024-01-15T19:47:44;21.13;;;3.00;;
44446;SDS011;30152;52.066;5.358;2024-01-15T19:50:10;16.98;;;2.97;;
44446;SDS011;30152;52.066;5.358;2024-01-15T19:52:36;20.73;;;3.28;;
44446;SDS011;30152;52.066;5.358;2024-01-15T19:55:02;19.38;;;4.03;;
44446;SDS011;30152;52.066;5.358;2024-01-15T19:57:28;15.15;;;2.90;;
44446;SDS011;30152;52.066;5.358;2024-01-15T19:59:54;19.63;;;3.47;;
44446;SDS011;30152;52.066;5.358;2024-01-15T20:02:20;21.88;;;3.45;;
44446;SDS011;30152;52.066;5.358;2024-01-15T20:04:45;19.65;;;2.88;;
44446;SDS011;30152;52.066;5.358;2024-01-15T20:07:11;14.43;;;2.60;;
44446;SDS011;30152;52.066;5.358;2024-01-15T20:09:37;16.60;;;3.08;;
44446;SDS011;30152;52.066;5.358;2024-01-15T20:12:04;19.20;;;3.00;;
44446;SDS011;30152;52.066;5.358;2024-01-15T20:14:30;19.27;;;3.28;;
44446;SDS011;30152;52.066;5.358;2024-01-15T20:16:56;15.13;;;2.85;;
44446;SDS011;30152;52.066;5.358;2024-01-15T20:19:23;17.25;;;3.20;;
44446;SDS011;30152;52.066;5.358;2024-01-15T20:21:49;18.42;;;3.55;;
44446;SDS011;30152;52.066;5.358;2024-01-15T20:24:15;13.68;;;2.90;;
44446;SDS011;30152;52.066;5.358;2024-01-15T20:26:44;17.70;;;3.33;;
44446;SDS011;30152;52.066;5.358;2024-01-15T20:29:10;13.98;;;3.20;;
44446;SDS011;30152;52.066;5.358;2024-01-15T20:31:36;18.83;;;3.55;;
44446;SDS011;30152;52.066;5.358;2024-01-15T20:34:03;19.02;;;3.33;;
44446;SDS011;30152;52.066;5.358;2024-01-15T20:36:28;21.35;;;3.42;;
44446;SDS011;30152;52.066;5.358;2024-01-15T20:38:54;18.80;;;3.17;;
44446;SDS011;30152;52.066;5.358;2024-01-15T20:41:21;22.20;;;3.95;;
44446;SDS011;30152;52.066;5.358;2024-01-15T20:43:46;18.03;;;3.33;;
44446;SDS011;30152;52.066;5.358;2024-01-15T20:46:12;18.70;;;3.10;;
44446;SDS011;30152;52.066;5.358;2024-01-15T20:48:38;17.17;;;3.25;;
44446;SDS011;30152;52.066;5.358;2024-01-15T20:51:04;15.27;;;2.90;;
44446;SDS011;30152;52.066;5.358;2024-01-15T20:53:30;12.52;;;3.17;;
44446;SDS011;30152;52.066;5.358;2024-01-15T20:55:56;18.30;;;3.30;;
44446;SDS011;30152;52.066;5.358;2024-01-15T20:58:23;18.40;;;3.13;;
44446;SDS011;30152;52.066;5.358;2024-01-15T21:00:48;18.58;;;3.70;;
44446;SDS011;30152;52.066;5.358;2024-01-15T21:03:15;15.47;;;2.90;;
44446;SDS011;30152;52.066;5.358;2024-01-15T21:05:42;19.67;;;3.30;;
